This is the latest recevied weather packets stored in our database for station/object GW1572. If no packets are shown the sender has not sent any weather packets the latest 10 day(s).
| Time | Temp. | Humidity | Pressure | Rain* | Wind** | Luminosity | Snow |
|---|---|---|---|---|---|---|---|
| 1777981165 | 16.67° C | 77% | 1003.3 hPa | 0 mm | - | - | - |
| 1777980095 | 16.67° C | 76% | 1003 hPa | 0 mm | - | - | - |
| 1777972872 | 15.56° C | 79% | 1002 hPa | 0 mm | - | - | - |
| 1777972173 | 15.56° C | 78% | 1001.6 hPa | 0 mm | - | - | - |
| 1777971810 | 16.11° C | 78% | 1001.6 hPa | 0 mm | - | - | - |
| 1777970370 | 16.11° C | 78% | 1001.6 hPa | 0 mm | - | - | - |
| 1777967849 | 18.33° C | 67% | 1001.6 hPa | 0 mm | - | - | - |
| 1777967471 | 16.67° C | 72% | 1001.6 hPa | 0 mm | - | - | - |
| 1777966779 | 17.22° C | 73% | 1001.3 hPa | 0 mm | - | - | - |
| 1777959570 | 15° C | 81% | 1001.6 hPa | 0 mm | - | - | - |
| 1777959189 | 15° C | 82% | 1001.6 hPa | 0 mm | - | - | - |
| 1777958137 | 15.56° C | 80% | 1001.6 hPa | 0 mm | - | - | - |
| 1777946966 | 17.22° C | 77% | 1000.3 hPa | 0 mm | - | - | - |
| 1777946597 | 17.22° C | 78% | 1000.6 hPa | 0 mm | - | - | - |
| 1777945158 | 17.78° C | 77% | 1000.3 hPa | 0 mm | - | - | - |
| 1777943736 | 18.33° C | 76% | 1000 hPa | 0 mm | - | - | - |
| 1777943011 | 18.33° C | 75% | 1000.3 hPa | 0 mm | - | - | - |
| 1777940113 | 20° C | 70% | 1000.3 hPa | 0 mm | - | - | - |
| 1777939035 | 21.11° C | 68% | 1000.6 hPa | 0 mm | - | - | - |
| 1777937622 | 23.33° C | 63% | 1000.3 hPa | 0 mm | - | - | - |
| 1777935107 | 26.11° C | 51% | 1000.6 hPa | 0 mm | - | - | - |
| 1777934376 | 25° C | 53% | 1000.6 hPa | 0 mm | - | - | - |
| 1777933996 | 25.56° C | 51% | 1000.6 hPa | 0 mm | - | - | - |
| 1777932196 | 25° C | 52% | 1001 hPa | 0 mm | - | - | - |
| 1777929328 | 25° C | 51% | 1001.3 hPa | 0 mm | - | - | - |
* Rain since midnight (hover to see other rain measurements)
** Current wind speed in m/s (hover to see current wind gust speed)